Time;durP1;ratioP1;P1;durP2;ratioP2;P2;SDS_P1;SDS_P2;PMS_P1;PMS_P2;Temp;Humidity;BMP_temperature;BMP_pressure;BME280_temperature;BME280_humidity;BME280_pressure;Samples;Min_cycle;Max_cycle;Signal;HPM_P1;HPM_P2
2022/07/24 06:14:33;;;;;;;;;;;15.40;85.10;;;;;;5096899;27;20025;-79
2022/07/24 06:16:59;;;;;;;;;;;15.40;85.80;;;;;;5087328;28;19928;-80
2022/07/24 06:19:26;;;;;;;;;;;15.40;86.00;;;;;;5088118;28;19920;-80
2022/07/24 06:21:53;;;;;;;;;;;15.40;86.00;;;;;;5087147;28;20382;-79
2022/07/24 06:24:19;;;;;;;;;;;15.30;86.00;;;;;;5085419;28;19912;-79
2022/07/24 06:26:48;;;;;;;;;;;15.30;86.00;;;;;;5087182;28;19924;-83
2022/07/24 06:29:15;;;;;;;;;;;15.30;85.70;;;;;;5090224;28;19998;-84
2022/07/24 06:31:41;;;;;;;;;;;15.30;86.00;;;;;;5098265;27;19912;-84
2022/07/24 06:34:08;;;;;;;;;;;15.30;86.00;;;;;;5088996;28;19912;-82
2022/07/24 06:36:35;;;;;;;;;;;15.30;86.30;;;;;;5089450;28;19966;-82
2022/07/24 06:39:01;;;;;;;;;;;15.30;86.60;;;;;;5081259;28;19919;-76
2022/07/24 06:41:28;;;;;;;;;;;15.30;86.90;;;;;;5091035;28;20003;-69
2022/07/24 06:43:54;;;;;;;;;;;15.30;87.00;;;;;;5099775;28;19911;-69
2022/07/24 06:46:21;;;;;;;;;;;15.30;87.10;;;;;;5087298;28;19916;-70
2022/07/24 06:48:47;;;;;;;;;;;15.20;87.30;;;;;;5084704;28;19920;-70
2022/07/24 06:51:14;;;;;;;;;;;15.20;87.50;;;;;;5087707;28;20397;-71
2022/07/24 06:53:43;;;;;;;;;;;15.20;87.60;;;;;;5087902;28;19912;-70
2022/07/24 06:56:10;;;;;;;;;;;15.10;87.60;;;;;;5084719;28;19916;-70
2022/07/24 06:58:36;;;;;;;;;;;15.10;87.60;;;;;;5095567;28;19946;-71
2022/07/24 07:01:03;;;;;;;;;;;15.10;87.50;;;;;;5102601;27;20424;-70
2022/07/24 07:03:29;;;;;;;;;;;15.10;87.40;;;;;;5099060;28;19912;-71
2022/07/24 07:05:56;;;;;;;;;;;15.00;86.90;;;;;;5086665;27;19931;-68
2022/07/24 07:08:22;;;;;;;;;;;15.00;86.60;;;;;;5083378;28;19922;-68
2022/07/24 07:10:49;;;;;;;;;;;15.00;86.00;;;;;;5088263;28;20408;-68
2022/07/24 07:13:15;;;;;;;;;;;15.00;85.90;;;;;;5078560;28;20691;-69
2022/07/24 07:15:42;;;;;;;;;;;15.00;86.00;;;;;;5093378;28;19923;-66
2022/07/24 07:18:08;;;;;;;;;;;15.00;86.40;;;;;;5082674;28;19926;-66
2022/07/24 07:20:35;;;;;;;;;;;15.00;86.70;;;;;;5096787;28;19919;-68
2022/07/24 07:23:02;;;;;;;;;;;15.00;86.80;;;;;;5090144;28;20386;-67
2022/07/24 07:25:29;;;;;;;;;;;15.00;87.00;;;;;;5080208;28;19920;-67
2022/07/24 07:27:55;;;;;;;;;;;14.90;87.10;;;;;;5091262;28;19951;-68
2022/07/24 07:30:22;;;;;;;;;;;14.90;87.30;;;;;;5084829;28;19978;-67
2022/07/24 07:32:48;;;;;;;;;;;14.80;87.40;;;;;;5085539;28;19912;-67
2022/07/24 07:35:15;;;;;;;;;;;14.90;87.60;;;;;;5080555;28;20669;-67
2022/07/24 07:37:44;;;;;;;;;;;14.80;87.50;;;;;;5085822;28;19997;-66
2022/07/24 07:40:11;;;;;;;;;;;14.80;87.50;;;;;;5083238;28;19931;-66
2022/07/24 07:42:37;;;;;;;;;;;14.80;87.60;;;;;;5083241;28;19923;-66
2022/07/24 07:45:04;;;;;;;;;;;14.70;87.80;;;;;;5088763;28;19955;-66
2022/07/24 07:47:31;;;;;;;;;;;14.70;87.80;;;;;;5084789;28;19920;-67
2022/07/24 07:49:57;;;;;;;;;;;14.70;87.90;;;;;;5087679;28;20282;-70
2022/07/24 07:52:24;;;;;;;;;;;14.70;88.10;;;;;;5080630;28;20433;-65
2022/07/24 07:54:51;;;;;;;;;;;14.70;88.10;;;;;;5082080;28;19912;-65
2022/07/24 07:57:17;;;;;;;;;;;14.70;88.20;;;;;;5076342;28;19921;-65
2022/07/24 07:59:44;;;;;;;;;;;14.70;88.40;;;;;;5082755;28;19912;-68
2022/07/24 08:02:10;;;;;;;;;;;14.70;88.60;;;;;;5083733;28;20473;-66
2022/07/24 08:04:37;;;;;;;;;;;14.60;88.70;;;;;;5083659;28;19920;-64
2022/07/24 08:07:03;;;;;;;;;;;14.60;88.80;;;;;;5078878;28;20366;-65
2022/07/24 08:09:30;;;;;;;;;;;14.60;89.00;;;;;;5086010;28;20377;-65
2022/07/24 08:11:57;;;;;;;;;;;14.60;89.00;;;;;;5081833;28;19920;-65
2022/07/24 08:14:23;;;;;;;;;;;14.50;89.20;;;;;;5086992;28;19947;-65
2022/07/24 08:16:50;;;;;;;;;;;14.50;89.40;;;;;;5085161;28;20400;-65
2022/07/24 08:19:16;;;;;;;;;;;14.50;89.60;;;;;;5083508;28;20370;-65
2022/07/24 08:21:43;;;;;;;;;;;14.40;89.70;;;;;;5085569;28;19916;-65
2022/07/24 08:24:09;;;;;;;;;;;14.40;89.70;;;;;;5082340;28;19919;-65
2022/07/24 08:26:36;;;;;;;;;;;14.30;89.80;;;;;;5081312;28;19965;-65
2022/07/24 08:29:02;;;;;;;;;;;14.30;90.00;;;;;;5083751;28;19916;-66
2022/07/24 08:31:29;;;;;;;;;;;14.30;90.00;;;;;;5085439;28;19916;-64
2022/07/24 08:33:56;;;;;;;;;;;14.30;90.00;;;;;;5079502;28;20337;-66
2022/07/24 08:36:22;;;;;;;;;;;14.30;90.00;;;;;;5083940;28;21618;-66
2022/07/24 08:38:49;;;;;;;;;;;14.30;90.00;;;;;;5078692;28;20408;-66
2022/07/24 08:41:18;;;;;;;;;;;14.30;90.10;;;;;;5080336;28;19935;-66
2022/07/24 08:43:44;;;;;;;;;;;14.30;90.00;;;;;;5080380;28;19923;-67
2022/07/24 08:46:11;;;;;;;;;;;14.30;90.10;;;;;;5085192;28;20312;-66
2022/07/24 08:48:41;;;;;;;;;;;14.30;90.20;;;;;;5071286;28;19924;-67
2022/07/24 08:51:08;;;;;;;;;;;14.30;90.30;;;;;;5074843;28;19916;-66
2022/07/24 08:53:34;;;;;;;;;;;14.20;90.30;;;;;;5101318;28;19912;-67
2022/07/24 08:56:01;;;;;;;;;;;14.20;90.40;;;;;;5096392;28;21865;-67
2022/07/24 08:58:27;;;;;;;;;;;14.20;90.80;;;;;;5093486;28;20293;-67
2022/07/24 09:00:54;;;;;;;;;;;14.20;90.70;;;;;;5100529;28;20362;-67
2022/07/24 09:03:20;;;;;;;;;;;14.10;90.80;;;;;;5083261;28;19916;-67
2022/07/24 09:05:54;;;;;;;;;;;14.10;90.90;;;;;;5078181;28;19955;-67
2022/07/24 09:08:20;;;;;;;;;;;14.10;91.20;;;;;;5101954;28;19916;-67
2022/07/24 09:10:59;;;;;;;;;;;14.10;91.20;;;;;;5079364;28;19919;-67
2022/07/24 09:13:26;;;;;;;;;;;14.10;91.30;;;;;;5086442;28;19919;-69
2022/07/24 09:15:53;;;;;;;;;;;14.00;91.60;;;;;;5111921;28;19924;-67
2022/07/24 09:18:32;;;;;;;;;;;14.00;91.50;;;;;;5089952;28;20304;-69
2022/07/24 09:21:00;;;;;;;;;;;14.00;91.60;;;;;;5082887;28;19922;-69
2022/07/24 09:23:27;;;;;;;;;;;13.90;91.80;;;;;;5089453;28;19916;-69
2022/07/24 09:25:54;;;;;;;;;;;13.90;91.90;;;;;;5109501;28;20297;-69
2022/07/24 09:28:20;;;;;;;;;;;13.90;92.00;;;;;;5088013;28;19958;-69
2022/07/24 09:30:50;;;;;;;;;;;13.90;91.90;;;;;;5090450;28;20002;-68
2022/07/24 09:33:17;;;;;;;;;;;13.90;91.90;;;;;;5099788;28;19954;-65
2022/07/24 09:35:48;;;;;;;;;;;13.90;91.80;;;;;;5074474;28;19916;-68
2022/07/24 09:38:18;;;;;;;;;;;13.80;91.70;;;;;;5084848;28;20297;-67
2022/07/24 09:40:46;;;;;;;;;;;13.80;91.80;;;;;;5082304;28;19916;-68
2022/07/24 09:43:15;;;;;;;;;;;13.80;91.90;;;;;;5082465;28;20648;-66
2022/07/24 09:46:01;;;;;;;;;;;13.80;91.90;;;;;;5099776;28;19918;-66
2022/07/24 09:48:29;;;;;;;;;;;13.70;92.00;;;;;;5092829;28;19942;-65
2022/07/24 09:50:56;;;;;;;;;;;13.70;92.00;;;;;;5100810;28;19919;-64
2022/07/24 09:53:27;;;;;;;;;;;13.70;92.20;;;;;;5101307;28;19947;-65
2022/07/24 09:55:57;;;;;;;;;;;13.70;92.20;;;;;;5101919;28;19995;-63
2022/07/24 09:58:24;;;;;;;;;;;13.70;92.30;;;;;;5095973;28;19995;-64
2022/07/24 10:00:51;;;;;;;;;;;13.60;92.30;;;;;;5087566;28;20003;-65
2022/07/24 10:03:18;;;;;;;;;;;13.60;92.40;;;;;;5096474;28;19934;-65
2022/07/24 10:05:44;;;;;;;;;;;13.60;92.30;;;;;;5076733;28;20286;-65
2022/07/24 10:08:11;;;;;;;;;;;13.50;92.40;;;;;;5083037;28;19909;-65
2022/07/24 10:10:38;;;;;;;;;;;13.50;92.50;;;;;;5088847;28;19912;-64
2022/07/24 10:13:05;;;;;;;;;;;13.50;92.60;;;;;;5097638;28;19923;-66
2022/07/24 10:15:31;;;;;;;;;;;13.50;92.60;;;;;;5096137;28;19971;-65
2022/07/24 10:17:58;;;;;;;;;;;13.50;92.70;;;;;;5082377;28;20660;-66
2022/07/24 10:20:43;;;;;;;;;;;13.50;92.70;;;;;;5102309;28;19959;-64
2022/07/24 10:23:10;;;;;;;;;;;13.40;92.70;;;;;;5089419;28;19920;-65
2022/07/24 10:25:56;;;;;;;;;;;13.40;92.80;;;;;;5085630;28;19920;-68
2022/07/24 10:28:37;;;;;;;;;;;13.40;92.70;;;;;;5079866;28;19974;-67
2022/07/24 10:31:07;;;;;;;;;;;13.40;92.70;;;;;;5080007;28;19923;-68
2022/07/24 10:33:35;;;;;;;;;;;13.30;92.90;;;;;;5084108;28;19924;-67
2022/07/24 10:36:02;;;;;;;;;;;13.30;92.90;;;;;;5085637;28;20262;-67
2022/07/24 10:38:34;;;;;;;;;;;13.30;93.00;;;;;;5090788;28;19921;-67
2022/07/24 10:41:03;;;;;;;;;;;13.30;93.10;;;;;;5093852;28;19912;-66
2022/07/24 10:43:29;;;;;;;;;;;13.40;93.20;;;;;;5088593;28;20068;-66
2022/07/24 10:45:56;;;;;;;;;;;13.30;93.10;;;;;;5091450;28;20315;-66
2022/07/24 10:48:23;;;;;;;;;;;13.30;93.10;;;;;;5100037;28;20358;-66
2022/07/24 10:51:08;;;;;;;;;;;13.30;93.00;;;;;;5101184;28;19911;-66
2022/07/24 10:53:38;;;;;;;;;;;13.30;92.90;;;;;;5085475;28;20377;-67
2022/07/24 10:56:23;;;;;;;;;;;13.20;93.00;;;;;;5100811;28;19912;-67
2022/07/24 10:58:52;;;;;;;;;;;13.20;93.10;;;;;;5092735;28;19965;-67
2022/07/24 11:01:28;;;;;;;;;;;13.20;93.10;;;;;;5094609;28;19927;-67
2022/07/24 11:03:54;;;;;;;;;;;13.20;93.10;;;;;;5087616;28;19923;-67
2022/07/24 11:06:37;;;;;;;;;;;13.20;93.10;;;;;;5089287;28;19942;-67
2022/07/24 11:09:04;;;;;;;;;;;13.20;93.20;;;;;;5085129;28;19920;-66
2022/07/24 11:11:30;;;;;;;;;;;13.10;93.30;;;;;;5090647;28;20002;-66
2022/07/24 11:13:58;;;;;;;;;;;13.10;93.30;;;;;;5070119;28;19920;-66
2022/07/24 11:16:26;;;;;;;;;;;13.10;93.30;;;;;;5082855;28;19931;-65
2022/07/24 11:18:52;;;;;;;;;;;13.00;93.30;;;;;;5093154;28;19912;-65
2022/07/24 11:21:37;;;;;;;;;;;13.00;93.40;;;;;;5091881;28;20288;-65
2022/07/24 11:26:46;;;;;;;;;;;13.00;93.60;;;;;;5091943;28;20327;-65
2022/07/24 11:29:16;;;;;;;;;;;13.00;93.80;;;;;;5088874;28;19958;-66
2022/07/24 11:31:42;;;;;;;;;;;13.00;93.80;;;;;;5087454;28;19987;-65
2022/07/24 11:34:09;;;;;;;;;;;12.90;93.70;;;;;;5085563;28;20141;-66
2022/07/24 11:36:36;;;;;;;;;;;12.90;93.70;;;;;;5088695;28;19928;-66
2022/07/24 11:39:03;;;;;;;;;;;12.80;93.80;;;;;;5090586;28;19922;-65
2022/07/24 11:41:44;;;;;;;;;;;12.80;93.80;;;;;;5087723;28;19915;-64
2022/07/24 11:44:10;;;;;;;;;;;12.80;93.90;;;;;;5088663;28;19963;-66
2022/07/24 11:46:39;;;;;;;;;;;12.80;93.90;;;;;;5084133;28;19927;-64
2022/07/24 11:49:05;;;;;;;;;;;12.80;93.80;;;;;;5086347;28;19916;-64
2022/07/24 11:51:32;;;;;;;;;;;12.80;93.90;;;;;;5077901;28;19920;-66
2022/07/24 11:54:01;;;;;;;;;;;12.80;94.10;;;;;;5081957;28;20286;-65
2022/07/24 11:56:30;;;;;;;;;;;12.80;94.10;;;;;;5089551;28;20366;-65
2022/07/24 11:58:57;;;;;;;;;;;12.80;94.10;;;;;;5083570;28;20003;-66
2022/07/24 12:01:23;;;;;;;;;;;12.80;94.10;;;;;;5085768;28;19927;-66
2022/07/24 12:03:53;;;;;;;;;;;12.80;94.20;;;;;;5088568;28;19916;-67
2022/07/24 12:06:20;;;;;;;;;;;12.80;94.30;;;;;;5079907;28;19923;-67
2022/07/24 12:08:47;;;;;;;;;;;12.80;94.30;;;;;;5083936;28;19931;-66
2022/07/24 12:11:22;;;;;;;;;;;12.70;94.30;;;;;;5086114;28;19912;-67
2022/07/24 12:13:49;;;;;;;;;;;12.70;94.00;;;;;;5087263;28;20015;-66
2022/07/24 12:16:25;;;;;;;;;;;12.70;94.20;;;;;;5084012;28;19924;-70
2022/07/24 12:18:51;;;;;;;;;;;12.70;94.10;;;;;;5085184;28;19916;-66
2022/07/24 12:21:18;;;;;;;;;;;12.70;94.20;;;;;;5085364;28;19938;-66
2022/07/24 12:23:46;;;;;;;;;;;12.70;94.30;;;;;;5088454;28;19919;-67
2022/07/24 12:26:12;;;;;;;;;;;12.60;94.20;;;;;;5082906;28;20731;-66
2022/07/24 12:28:39;;;;;;;;;;;12.60;94.30;;;;;;5079926;28;20387;-64
2022/07/24 12:31:09;;;;;;;;;;;12.60;94.20;;;;;;5087698;28;19920;-64
2022/07/24 12:33:35;;;;;;;;;;;12.60;94.30;;;;;;5085300;28;19916;-66
2022/07/24 12:36:17;;;;;;;;;;;12.50;94.20;;;;;;5080995;28;19958;-66
2022/07/24 12:38:50;;;;;;;;;;;12.50;94.20;;;;;;5086520;28;19922;-66
2022/07/24 12:41:17;;;;;;;;;;;12.50;94.10;;;;;;5085362;28;19990;-66
2022/07/24 12:43:51;;;;;;;;;;;12.50;94.20;;;;;;5093685;28;20483;-66
2022/07/24 12:46:18;;;;;;;;;;;12.50;94.10;;;;;;5099554;28;19912;-66
2022/07/24 12:48:57;;;;;;;;;;;12.40;94.00;;;;;;5092858;28;19919;-66
2022/07/24 12:51:23;;;;;;;;;;;12.50;94.00;;;;;;5089964;28;20046;-65
2022/07/24 12:53:52;;;;;;;;;;;12.40;94.20;;;;;;5086543;28;19919;-65
2022/07/24 12:56:19;;;;;;;;;;;12.40;94.20;;;;;;5095929;28;19923;-66
2022/07/24 12:58:52;;;;;;;;;;;12.40;94.10;;;;;;5089444;28;19963;-66
2022/07/24 13:01:19;;;;;;;;;;;12.40;94.10;;;;;;5089030;28;19920;-66
2022/07/24 13:03:59;;;;;;;;;;;12.40;94.00;;;;;;5089176;28;19966;-65
2022/07/24 13:06:35;;;;;;;;;;;12.40;94.10;;;;;;5090310;28;19995;-66
2022/07/24 13:09:02;;;;;;;;;;;12.40;94.20;;;;;;5084964;28;19912;-66
2022/07/24 13:11:29;;;;;;;;;;;12.40;94.20;;;;;;5089795;28;19916;-66
2022/07/24 13:13:55;;;;;;;;;;;12.40;94.30;;;;;;5091382;28;20281;-66
2022/07/24 13:16:23;;;;;;;;;;;12.40;94.40;;;;;;5091130;28;19923;-66
2022/07/24 13:18:51;;;;;;;;;;;12.40;94.40;;;;;;5089194;28;19924;-66
2022/07/24 13:21:19;;;;;;;;;;;12.50;94.50;;;;;;5089306;28;19912;-66
2022/07/24 13:23:45;;;;;;;;;;;12.50;94.40;;;;;;5089554;28;20472;-66
2022/07/24 13:26:12;;;;;;;;;;;12.50;94.50;;;;;;5090840;28;20443;-66
2022/07/24 13:28:38;;;;;;;;;;;12.50;94.40;;;;;;5083463;28;19959;-66
2022/07/24 13:31:05;;;;;;;;;;;12.50;94.30;;;;;;5070626;28;19924;-65
2022/07/24 13:33:31;;;;;;;;;;;12.40;94.30;;;;;;5085409;28;19916;-66
2022/07/24 13:35:58;;;;;;;;;;;12.40;94.40;;;;;;5084579;28;20039;-65
2022/07/24 13:38:25;;;;;;;;;;;12.40;94.30;;;;;;5084872;28;19916;-65
2022/07/24 13:40:51;;;;;;;;;;;12.30;94.30;;;;;;5089812;28;19923;-65
2022/07/24 13:43:18;;;;;;;;;;;12.30;94.30;;;;;;5093526;28;19954;-66
2022/07/24 13:45:44;;;;;;;;;;;12.30;94.40;;;;;;5098018;28;19924;-66
2022/07/24 13:48:11;;;;;;;;;;;12.30;94.40;;;;;;5086041;28;19912;-66
2022/07/24 13:50:37;;;;;;;;;;;12.30;94.30;;;;;;5090543;28;19923;-66
2022/07/24 13:53:04;;;;;;;;;;;12.20;94.30;;;;;;5089180;28;19920;-66
2022/07/24 13:55:31;;;;;;;;;;;12.20;94.30;;;;;;5100340;28;19995;-66
2022/07/24 13:57:58;;;;;;;;;;;12.20;94.30;;;;;;5095048;28;19924;-66
2022/07/24 14:00:25;;;;;;;;;;;12.20;94.30;;;;;;5097185;28;20319;-65
2022/07/24 14:02:57;;;;;;;;;;;12.20;94.20;;;;;;5087239;27;20003;-66
2022/07/24 14:05:23;;;;;;;;;;;12.20;94.40;;;;;;5100041;28;19919;-65
2022/07/24 14:07:50;;;;;;;;;;;12.20;94.40;;;;;;5094055;28;19963;-65
2022/07/24 14:10:17;;;;;;;;;;;12.20;94.40;;;;;;5094309;28;19912;-65
2022/07/24 14:12:43;;;;;;;;;;;12.20;94.50;;;;;;5094576;28;19916;-66
2022/07/24 14:15:12;;;;;;;;;;;12.20;94.50;;;;;;5098493;28;19963;-66
2022/07/24 14:17:38;;;;;;;;;;;12.20;94.50;;;;;;5091638;27;19924;-66
2022/07/24 14:20:07;;;;;;;;;;;12.20;94.60;;;;;;5087963;28;19923;-66
2022/07/24 14:22:37;;;;;;;;;;;12.10;94.50;;;;;;5100918;28;20266;-66
2022/07/24 14:25:04;;;;;;;;;;;12.10;94.40;;;;;;5082236;28;19916;-66
2022/07/24 14:27:30;;;;;;;;;;;12.10;94.40;;;;;;5100660;28;20281;-65
2022/07/24 14:29:57;;;;;;;;;;;12.10;94.50;;;;;;5086899;28;19916;-65
2022/07/24 14:32:23;;;;;;;;;;;12.10;94.40;;;;;;5102229;28;20011;-66
2022/07/24 14:34:50;;;;;;;;;;;12.10;94.30;;;;;;5080969;28;19916;-66
2022/07/24 14:37:16;;;;;;;;;;;12.00;94.30;;;;;;5091947;28;20369;-67
2022/07/24 14:39:43;;;;;;;;;;;12.00;94.20;;;;;;5099717;27;20386;-68
2022/07/24 14:42:10;;;;;;;;;;;12.00;94.40;;;;;;5093325;28;19919;-67
2022/07/24 14:44:36;;;;;;;;;;;12.00;94.40;;;;;;5105504;28;21074;-67
2022/07/24 14:47:04;;;;;;;;;;;11.90;94.40;;;;;;5088417;28;19959;-67
2022/07/24 14:49:31;;;;;;;;;;;12.00;94.50;;;;;;5101607;28;20293;-67
2022/07/24 14:51:58;;;;;;;;;;;12.00;94.60;;;;;;5099635;27;19914;-67
2022/07/24 14:54:25;;;;;;;;;;;12.00;94.60;;;;;;5103571;28;20045;-67
2022/07/24 14:56:51;;;;;;;;;;;12.00;94.60;;;;;;5099571;28;20335;-67
2022/07/24 14:59:18;;;;;;;;;;;12.00;94.60;;;;;;5082676;28;19908;-67
2022/07/24 15:01:44;;;;;;;;;;;12.00;94.60;;;;;;5096334;28;19958;-67
2022/07/24 15:04:11;;;;;;;;;;;12.00;94.60;;;;;;5102744;28;19966;-67
2022/07/24 15:06:38;;;;;;;;;;;11.90;94.50;;;;;;5100756;28;19912;-67
2022/07/24 15:09:04;;;;;;;;;;;11.90;94.60;;;;;;5084256;28;20343;-67
2022/07/24 15:11:31;;;;;;;;;;;11.90;94.40;;;;;;5094671;28;19920;-67
2022/07/24 15:13:58;;;;;;;;;;;11.80;94.50;;;;;;5092467;28;19923;-67
2022/07/24 15:16:24;;;;;;;;;;;11.80;94.50;;;;;;5089400;28;19978;-67
2022/07/24 15:18:51;;;;;;;;;;;11.80;94.50;;;;;;5090902;28;19912;-67
2022/07/24 15:21:17;;;;;;;;;;;11.80;94.40;;;;;;5089089;28;19912;-67
2022/07/24 15:23:44;;;;;;;;;;;11.70;94.30;;;;;;5108103;28;19918;-67
2022/07/24 15:26:10;;;;;;;;;;;11.70;94.20;;;;;;5101912;28;19915;-67
2022/07/24 15:28:37;;;;;;;;;;;11.70;94.40;;;;;;5090595;28;19923;-67
2022/07/24 15:31:03;;;;;;;;;;;11.70;94.20;;;;;;5105823;28;19908;-67
2022/07/24 15:33:30;;;;;;;;;;;11.70;94.30;;;;;;5095352;28;19912;-66
2022/07/24 15:35:56;;;;;;;;;;;11.60;94.20;;;;;;5099826;28;19908;-67
2022/07/24 15:38:23;;;;;;;;;;;11.60;94.40;;;;;;5092426;28;19924;-67
2022/07/24 15:40:50;;;;;;;;;;;11.60;94.40;;;;;;5095536;28;19990;-67
2022/07/24 15:43:17;;;;;;;;;;;11.60;94.40;;;;;;5090127;28;20320;-67
2022/07/24 15:45:43;;;;;;;;;;;11.50;94.20;;;;;;5095471;28;19916;-67
2022/07/24 15:48:10;;;;;;;;;;;11.50;94.30;;;;;;5087708;28;19916;-67
2022/07/24 15:50:37;;;;;;;;;;;11.50;94.30;;;;;;5085732;28;19912;-67
2022/07/24 15:53:03;;;;;;;;;;;11.50;94.20;;;;;;5088360;28;20037;-67
2022/07/24 15:55:30;;;;;;;;;;;11.50;94.20;;;;;;5103385;28;19908;-67
2022/07/24 15:57:56;;;;;;;;;;;11.50;94.10;;;;;;5101324;28;19919;-67
2022/07/24 16:00:23;;;;;;;;;;;11.50;94.20;;;;;;5100051;28;19965;-67
2022/07/24 16:02:49;;;;;;;;;;;11.50;94.10;;;;;;5096268;28;19908;-66
2022/07/24 16:05:17;;;;;;;;;;;11.40;94.00;;;;;;5084748;28;19947;-66
2022/07/24 16:07:44;;;;;;;;;;;11.40;94.10;;;;;;5087117;28;20049;-66
2022/07/24 16:10:10;;;;;;;;;;;11.40;93.90;;;;;;5081158;28;19923;-66
2022/07/24 16:12:37;;;;;;;;;;;11.30;94.10;;;;;;5090871;28;20016;-67
2022/07/24 16:15:03;;;;;;;;;;;11.30;94.00;;;;;;5089622;28;19973;-67
2022/07/24 16:17:30;;;;;;;;;;;11.20;94.00;;;;;;5086949;28;20019;-66
2022/07/24 16:19:56;;;;;;;;;;;11.30;94.20;;;;;;5087709;28;19912;-67
2022/07/24 16:22:23;;;;;;;;;;;11.30;94.30;;;;;;5094556;28;19934;-66
2022/07/24 16:24:50;;;;;;;;;;;11.30;94.30;;;;;;5095505;28;19912;-67
2022/07/24 16:27:16;;;;;;;;;;;11.30;94.20;;;;;;5097187;28;20287;-67
2022/07/24 16:29:43;;;;;;;;;;;11.30;94.20;;;;;;5091231;28;20017;-67
2022/07/24 16:32:09;;;;;;;;;;;11.30;94.00;;;;;;5093359;28;19912;-67
2022/07/24 16:34:36;;;;;;;;;;;11.30;94.20;;;;;;5094326;28;19923;-67
2022/07/24 16:37:03;;;;;;;;;;;11.30;94.30;;;;;;5087686;28;20294;-67
2022/07/24 16:39:29;;;;;;;;;;;11.30;94.20;;;;;;5094947;28;20277;-67
2022/07/24 16:41:56;;;;;;;;;;;11.20;94.10;;;;;;5094397;28;20002;-67
2022/07/24 16:44:22;;;;;;;;;;;11.20;94.30;;;;;;5101112;28;19920;-67
2022/07/24 16:46:49;;;;;;;;;;;11.20;94.10;;;;;;5102251;28;19911;-67
2022/07/24 16:49:16;;;;;;;;;;;11.20;94.10;;;;;;5099499;27;19943;-67
2022/07/24 16:51:43;;;;;;;;;;;11.20;94.00;;;;;;5105929;28;19977;-67
2022/07/24 16:54:09;;;;;;;;;;;11.20;94.00;;;;;;5118823;27;20010;-67
2022/07/24 16:56:36;;;;;;;;;;;11.20;93.90;;;;;;5114662;28;19949;-66
2022/07/24 16:59:02;;;;;;;;;;;11.20;94.00;;;;;;5108597;27;19918;-66
2022/07/24 17:01:29;;;;;;;;;;;11.20;94.10;;;;;;5115178;27;19974;-66
2022/07/24 17:03:56;;;;;;;;;;;11.10;94.10;;;;;;5117380;28;20258;-67
2022/07/24 17:06:22;;;;;;;;;;;11.10;94.10;;;;;;5109377;28;20236;-67
2022/07/24 17:08:49;;;;;;;;;;;11.10;94.20;;;;;;5102810;28;20242;-66
2022/07/24 17:11:16;;;;;;;;;;;11.10;94.20;;;;;;5118784;27;20014;-66
2022/07/24 17:13:42;;;;;;;;;;;11.00;94.00;;;;;;5098502;27;19935;-65
2022/07/24 17:16:09;;;;;;;;;;;11.10;94.10;;;;;;5118854;27;19984;-67
2022/07/24 17:18:35;;;;;;;;;;;11.00;94.20;;;;;;5103785;27;19908;-67
2022/07/24 17:21:02;;;;;;;;;;;11.10;94.20;;;;;;5117480;28;19918;-67
2022/07/24 17:23:28;;;;;;;;;;;11.10;94.10;;;;;;5113045;28;19915;-67
2022/07/24 17:25:56;;;;;;;;;;;11.00;94.00;;;;;;5118620;27;19998;-67
2022/07/24 17:28:23;;;;;;;;;;;11.00;94.20;;;;;;5110651;27;19908;-67
2022/07/24 17:30:51;;;;;;;;;;;11.10;94.10;;;;;;5116277;28;19912;-67
2022/07/24 17:33:17;;;;;;;;;;;11.00;93.90;;;;;;5113119;28;19913;-67
2022/07/24 17:35:44;;;;;;;;;;;11.00;94.10;;;;;;5111429;28;19908;-67
2022/07/24 17:38:10;;;;;;;;;;;10.90;94.10;;;;;;5107217;28;20331;-67
2022/07/24 17:40:37;;;;;;;;;;;10.90;94.20;;;;;;5103426;28;20292;-66
2022/07/24 17:43:04;;;;;;;;;;;10.90;94.00;;;;;;5101081;28;19914;-67
2022/07/24 17:45:30;;;;;;;;;;;10.90;94.10;;;;;;5115560;28;19908;-67
2022/07/24 17:47:57;;;;;;;;;;;10.90;94.30;;;;;;5111878;28;19908;-67
2022/07/24 17:50:23;;;;;;;;;;;10.90;94.30;;;;;;5098965;28;20423;-67
2022/07/24 17:52:50;;;;;;;;;;;10.90;94.20;;;;;;5107100;28;20273;-66
2022/07/24 17:55:17;;;;;;;;;;;10.90;94.20;;;;;;5095655;28;19921;-66
2022/07/24 17:57:43;;;;;;;;;;;10.90;94.20;;;;;;5103242;28;19965;-66
2022/07/24 18:00:11;;;;;;;;;;;10.90;94.30;;;;;;5099636;28;19916;-66
2022/07/24 18:02:37;;;;;;;;;;;10.90;94.40;;;;;;5111298;28;19911;-67
2022/07/24 18:05:04;;;;;;;;;;;10.90;94.40;;;;;;5105486;28;19912;-67
2022/07/24 18:07:31;;;;;;;;;;;10.90;94.40;;;;;;5091248;28;20042;-66
2022/07/24 18:09:57;;;;;;;;;;;10.90;94.40;;;;;;5092639;28;19912;-66
2022/07/24 18:12:24;;;;;;;;;;;10.90;94.50;;;;;;5104123;28;19912;-67
2022/07/24 18:14:52;;;;;;;;;;;10.90;94.40;;;;;;5108218;28;19920;-67
2022/07/24 18:17:19;;;;;;;;;;;10.80;94.30;;;;;;5091675;28;19926;-67
2022/07/24 18:19:46;;;;;;;;;;;10.80;94.40;;;;;;5091254;28;19973;-67
2022/07/24 18:22:12;;;;;;;;;;;10.80;94.50;;;;;;5097502;28;19957;-67
2022/07/24 18:24:39;;;;;;;;;;;10.80;94.30;;;;;;5110670;28;19912;-66
2022/07/24 18:27:06;;;;;;;;;;;10.70;94.10;;;;;;5097098;28;20003;-66
2022/07/24 18:29:32;;;;;;;;;;;10.70;94.30;;;;;;5101322;28;20362;-67
2022/07/24 18:31:59;;;;;;;;;;;10.70;94.30;;;;;;5090998;28;20267;-66
2022/07/24 18:34:25;;;;;;;;;;;10.70;94.20;;;;;;5092601;28;20010;-67
2022/07/24 18:36:52;;;;;;;;;;;10.70;94.30;;;;;;5087200;28;19920;-67
2022/07/24 18:39:19;;;;;;;;;;;10.70;94.30;;;;;;5092398;28;19912;-67
2022/07/24 18:41:45;;;;;;;;;;;10.70;94.20;;;;;;5096062;28;19920;-67
2022/07/24 18:44:12;;;;;;;;;;;10.70;94.10;;;;;;5098704;28;20369;-66
2022/07/24 18:46:38;;;;;;;;;;;10.60;94.20;;;;;;5098846;28;20531;-66
2022/07/24 18:49:05;;;;;;;;;;;10.70;94.20;;;;;;5083168;28;19923;-66
2022/07/24 18:51:31;;;;;;;;;;;10.70;94.20;;;;;;5092059;28;19964;-67
2022/07/24 18:53:58;;;;;;;;;;;10.60;94.20;;;;;;5108227;28;19964;-67
2022/07/24 18:56:25;;;;;;;;;;;10.60;94.10;;;;;;5093672;28;19931;-67
2022/07/24 18:58:51;;;;;;;;;;;10.50;94.20;;;;;;5090084;28;19913;-66
2022/07/24 19:01:19;;;;;;;;;;;10.50;94.30;;;;;;5090297;28;20145;-66
2022/07/24 19:03:45;;;;;;;;;;;10.50;94.40;;;;;;5080020;28;19916;-67
2022/07/24 19:06:12;;;;;;;;;;;10.50;94.50;;;;;;5091028;28;20325;-66
2022/07/24 19:08:39;;;;;;;;;;;10.50;94.50;;;;;;5090075;28;20362;-66
2022/07/24 19:11:05;;;;;;;;;;;10.50;94.70;;;;;;5077632;28;19919;-66
2022/07/24 19:13:32;;;;;;;;;;;10.50;94.80;;;;;;5087060;28;19954;-66
2022/07/24 19:15:58;;;;;;;;;;;10.50;94.70;;;;;;5090914;28;20003;-66
2022/07/24 19:18:25;;;;;;;;;;;10.50;94.80;;;;;;5088378;28;19928;-67
2022/07/24 19:20:51;;;;;;;;;;;10.50;94.70;;;;;;5087158;28;19912;-69
2022/07/24 19:23:18;;;;;;;;;;;10.40;94.80;;;;;;5092928;28;19919;-68
2022/07/24 19:25:45;;;;;;;;;;;10.40;94.70;;;;;;5091886;27;20004;-68
2022/07/24 19:28:11;;;;;;;;;;;10.40;94.70;;;;;;5089766;28;19998;-69
2022/07/24 19:30:38;;;;;;;;;;;10.40;94.60;;;;;;5089788;28;19927;-67
2022/07/24 19:33:04;;;;;;;;;;;10.40;94.70;;;;;;5085826;28;19912;-65
2022/07/24 19:35:31;;;;;;;;;;;10.40;94.60;;;;;;5086653;28;19957;-66
2022/07/24 19:37:57;;;;;;;;;;;10.30;94.60;;;;;;5084193;28;19967;-67
2022/07/24 19:40:24;;;;;;;;;;;10.30;94.60;;;;;;5085967;28;20021;-68
2022/07/24 19:42:51;;;;;;;;;;;10.30;94.50;;;;;;5090424;28;19926;-68
2022/07/24 19:45:17;;;;;;;;;;;10.30;94.60;;;;;;5085862;28;19912;-68
2022/07/24 19:47:44;;;;;;;;;;;10.30;94.50;;;;;;5090770;28;19917;-68
2022/07/24 19:50:10;;;;;;;;;;;10.30;94.60;;;;;;5087444;28;20285;-68
2022/07/24 19:52:37;;;;;;;;;;;10.30;94.60;;;;;;5084131;28;20413;-66
2022/07/24 19:55:04;;;;;;;;;;;10.30;94.40;;;;;;5083219;28;19916;-66
2022/07/24 19:57:30;;;;;;;;;;;10.20;94.50;;;;;;5086379;28;19920;-67
2022/07/24 19:59:57;;;;;;;;;;;10.20;94.50;;;;;;5080339;28;20029;-67
2022/07/24 20:02:23;;;;;;;;;;;10.20;94.40;;;;;;5085660;28;20373;-67
2022/07/24 20:04:50;;;;;;;;;;;10.20;94.60;;;;;;5089090;28;20400;-66
2022/07/24 20:07:17;;;;;;;;;;;10.20;94.60;;;;;;5082522;28;19908;-67
2022/07/24 20:09:43;;;;;;;;;;;10.20;94.70;;;;;;5088900;28;20006;-68
2022/07/24 20:12:10;;;;;;;;;;;10.10;94.50;;;;;;5090475;28;19916;-71
2022/07/24 20:14:37;;;;;;;;;;;10.10;94.70;;;;;;5090762;28;19966;-70
2022/07/24 20:17:03;;;;;;;;;;;10.10;94.70;;;;;;5090125;28;20006;-71
2022/07/24 20:19:30;;;;;;;;;;;10.10;94.70;;;;;;5092405;28;19908;-70
2022/07/24 20:21:57;;;;;;;;;;;10.20;95.00;;;;;;5087697;28;19963;-71
2022/07/24 20:24:24;;;;;;;;;;;10.20;94.70;;;;;;5098358;28;20413;-71
2022/07/24 20:26:50;;;;;;;;;;;10.10;94.70;;;;;;5083121;28;19912;-71
2022/07/24 20:29:17;;;;;;;;;;;10.10;94.80;;;;;;5091037;28;19908;-71
2022/07/24 20:31:43;;;;;;;;;;;10.20;95.00;;;;;;5091404;28;19992;-71
2022/07/24 20:34:10;;;;;;;;;;;10.20;95.00;;;;;;5086636;28;20390;-71